TAF Text Data
IDs:
Format:
Raw Decoded Include METAR

Data at: 0232 UTC 29 May 2022

KMSL 282333Z 2900/2924 VRB03KT P6SM FEW050
  TEMPO 2909/2912 5SM BR
  FM291700 18008KT P6SM FEW250